createdAt,value
2017-02-13T00:00:12.884Z,964.75
2017-02-13T00:01:11.964Z,964.80
2017-02-13T00:02:12.807Z,964.72
2017-02-13T00:03:12.609Z,964.80
2017-02-13T00:04:12.624Z,964.79
2017-02-13T00:05:13.917Z,964.75
2017-02-13T00:06:12.506Z,964.71
2017-02-13T00:07:14.244Z,964.75
2017-02-13T00:08:11.285Z,964.72
2017-02-13T00:09:12.444Z,964.71
2017-02-13T00:10:12.660Z,964.71
2017-02-13T00:11:13.471Z,964.73
2017-02-13T00:12:12.600Z,964.72
2017-02-13T00:13:13.159Z,964.66
2017-02-13T00:14:10.931Z,964.68
2017-02-13T00:15:12.651Z,964.68
2017-02-13T00:16:13.454Z,964.71
2017-02-13T00:17:12.983Z,964.67
2017-02-13T00:18:12.661Z,964.64
2017-02-13T00:19:14.964Z,964.65
2017-02-13T00:20:12.104Z,964.60
2017-02-13T00:21:12.315Z,964.62
2017-02-13T00:22:13.585Z,964.61
2017-02-13T00:23:13.262Z,964.61
2017-02-13T00:24:12.287Z,964.62
2017-02-13T00:25:14.094Z,964.59
2017-02-13T00:26:11.997Z,964.56
2017-02-13T00:27:12.763Z,964.53
2017-02-13T00:28:12.078Z,964.57
2017-02-13T00:29:13.923Z,964.61
2017-02-13T00:30:12.453Z,964.57
2017-02-13T00:31:13.178Z,964.61
2017-02-13T00:32:12.868Z,964.60
2017-02-13T00:33:12.581Z,964.61
2017-02-13T00:34:13.113Z,964.65
2017-02-13T00:35:12.099Z,964.63
2017-02-13T00:36:12.932Z,964.64
2017-02-13T00:37:12.648Z,964.68
2017-02-13T00:38:12.667Z,964.69
2017-02-13T00:39:14.213Z,964.68
2017-02-13T00:40:12.438Z,964.68
2017-02-13T00:41:14.990Z,964.66
2017-02-13T00:42:12.679Z,964.67
2017-02-13T00:43:13.702Z,964.63
2017-02-13T00:44:13.851Z,964.64
2017-02-13T00:45:12.264Z,964.62
2017-02-13T00:46:12.251Z,964.60
2017-02-13T00:47:12.873Z,964.62
2017-02-13T00:48:11.959Z,964.60
2017-02-13T00:49:13.494Z,964.56
2017-02-13T00:50:12.656Z,964.59
2017-02-13T00:51:13.837Z,964.56
2017-02-13T00:52:13.481Z,964.58
2017-02-13T00:53:13.912Z,964.59
2017-02-13T00:54:11.886Z,964.59
2017-02-13T00:55:15.153Z,964.62
2017-02-13T00:56:12.101Z,964.59
2017-02-13T00:57:09.677Z,964.61
2017-02-13T00:58:12.454Z,964.62
2017-02-13T00:59:12.860Z,964.59
2017-02-13T01:00:14.790Z,964.59
2017-02-13T01:01:13.640Z,964.61
2017-02-13T01:02:13.309Z,964.60
2017-02-13T01:03:14.052Z,964.60
2017-02-13T01:04:14.678Z,964.60
2017-02-13T01:05:12.265Z,964.65
2017-02-13T01:06:13.734Z,964.62
2017-02-13T01:07:13.878Z,964.62
2017-02-13T01:08:11.931Z,964.60
2017-02-13T01:09:14.462Z,964.63
2017-02-13T01:10:15.076Z,964.64
2017-02-13T01:11:13.017Z,964.63
2017-02-13T01:12:15.524Z,964.63
2017-02-13T01:13:13.284Z,964.68
2017-02-13T01:14:12.264Z,964.66
2017-02-13T01:15:14.104Z,964.69
2017-02-13T01:16:13.583Z,964.69
2017-02-13T01:17:15.740Z,964.65
2017-02-13T01:18:14.284Z,964.65
2017-02-13T01:19:15.505Z,964.67
2017-02-13T01:20:14.799Z,964.65
2017-02-13T01:21:12.479Z,964.63
2017-02-13T01:22:12.524Z,964.62
2017-02-13T01:23:14.126Z,964.60
2017-02-13T01:24:12.811Z,964.57
2017-02-13T01:25:12.815Z,964.60
2017-02-13T01:26:12.282Z,964.56
2017-02-13T01:27:14.593Z,964.55
2017-02-13T01:28:13.347Z,964.55
2017-02-13T01:29:14.852Z,964.53
2017-02-13T01:30:13.078Z,964.57
2017-02-13T01:31:13.933Z,964.51
2017-02-13T01:32:12.479Z,964.52
2017-02-13T01:33:13.513Z,964.53
2017-02-13T01:34:14.412Z,964.55
2017-02-13T01:35:13.660Z,964.47
2017-02-13T01:36:15.350Z,964.52
2017-02-13T01:37:12.316Z,964.51
2017-02-13T01:38:14.194Z,964.53
2017-02-13T01:39:12.401Z,964.48
2017-02-13T01:40:13.811Z,964.45
2017-02-13T01:41:14.230Z,964.49
2017-02-13T01:42:12.793Z,964.42
2017-02-13T01:43:12.785Z,964.46
2017-02-13T01:44:12.875Z,964.45
2017-02-13T01:45:12.913Z,964.45
2017-02-13T01:46:11.995Z,964.42
2017-02-13T01:47:14.123Z,964.38
2017-02-13T01:48:11.266Z,964.41
2017-02-13T01:49:12.955Z,964.40
2017-02-13T01:50:12.664Z,964.44
2017-02-13T01:51:11.885Z,964.42
2017-02-13T01:52:12.573Z,964.41
2017-02-13T01:53:14.267Z,964.42
2017-02-13T01:54:13.386Z,964.44
2017-02-13T01:55:13.281Z,964.42
2017-02-13T01:56:14.456Z,964.41
2017-02-13T01:57:12.633Z,964.44
2017-02-13T01:58:13.136Z,964.42
2017-02-13T01:59:14.895Z,964.44
2017-02-13T02:00:13.454Z,964.46
2017-02-13T02:01:12.434Z,964.45
2017-02-13T02:02:12.982Z,964.44
2017-02-13T02:03:13.297Z,964.44
2017-02-13T02:04:12.266Z,964.46
2017-02-13T02:05:14.473Z,964.49
2017-02-13T02:06:11.584Z,964.48
2017-02-13T02:07:13.852Z,964.52
2017-02-13T02:08:11.854Z,964.47
2017-02-13T02:09:12.648Z,964.50
2017-02-13T02:10:12.474Z,964.51
2017-02-13T02:11:12.477Z,964.52
2017-02-13T02:12:13.697Z,964.50
2017-02-13T02:13:13.374Z,964.52
2017-02-13T02:14:15.085Z,964.54
2017-02-13T02:15:12.263Z,964.53
2017-02-13T02:16:12.845Z,964.48
2017-02-13T02:17:12.861Z,964.46
2017-02-13T02:18:12.455Z,964.51
2017-02-13T02:19:13.186Z,964.46
2017-02-13T02:20:12.273Z,964.48
2017-02-13T02:21:14.069Z,964.45
2017-02-13T02:22:12.101Z,964.43
2017-02-13T02:23:13.927Z,964.42
2017-02-13T02:24:12.062Z,964.42
2017-02-13T02:25:13.196Z,964.39
2017-02-13T02:26:13.659Z,964.36
2017-02-13T02:27:12.817Z,964.39
2017-02-13T02:28:12.647Z,964.36
2017-02-13T02:29:12.698Z,964.36
2017-02-13T02:30:12.538Z,964.36
2017-02-13T02:31:14.087Z,964.37
2017-02-13T02:32:12.137Z,964.36
2017-02-13T02:33:12.825Z,964.39
2017-02-13T02:34:12.077Z,964.39
2017-02-13T02:35:14.039Z,964.40
2017-02-13T02:36:12.172Z,964.42
2017-02-13T02:37:14.243Z,964.41
2017-02-13T02:38:13.070Z,964.41
2017-02-13T02:39:12.902Z,964.40
2017-02-13T02:40:14.116Z,964.38
2017-02-13T02:41:12.146Z,964.36
2017-02-13T02:42:13.343Z,964.34
2017-02-13T02:43:10.466Z,964.36
2017-02-13T02:44:13.577Z,964.36
2017-02-13T02:45:12.746Z,964.39
2017-02-13T02:46:12.906Z,964.39
2017-02-13T02:47:12.090Z,964.38
2017-02-13T02:48:12.624Z,964.38
2017-02-13T02:49:12.754Z,964.40
2017-02-13T02:50:10.413Z,964.41
2017-02-13T02:51:13.531Z,964.41
2017-02-13T02:52:12.291Z,964.42
2017-02-13T02:53:14.051Z,964.37
2017-02-13T02:54:12.845Z,964.36
2017-02-13T02:55:13.399Z,964.40
2017-02-13T02:56:13.713Z,964.41
2017-02-13T02:57:12.858Z,964.38
2017-02-13T02:58:12.665Z,964.37
2017-02-13T02:59:13.058Z,964.37
2017-02-13T03:00:10.247Z,964.38
2017-02-13T03:01:13.198Z,964.46
2017-02-13T03:02:12.210Z,964.40
2017-02-13T03:03:13.175Z,964.38
2017-02-13T03:04:12.087Z,964.39
2017-02-13T03:05:12.858Z,964.41
2017-02-13T03:06:12.458Z,964.37
2017-02-13T03:07:13.633Z,964.40
2017-02-13T03:08:15.147Z,964.47
2017-02-13T03:09:15.769Z,964.43
2017-02-13T03:10:12.449Z,964.48
2017-02-13T03:11:13.385Z,964.41
2017-02-13T03:12:12.693Z,964.52
2017-02-13T03:13:13.757Z,964.46
2017-02-13T03:14:12.452Z,964.44
2017-02-13T03:15:11.053Z,964.43
2017-02-13T03:16:12.273Z,964.48
2017-02-13T03:17:13.989Z,964.49
2017-02-13T03:18:10.247Z,964.49
2017-02-13T03:19:12.059Z,964.56
2017-02-13T03:20:12.777Z,964.52
2017-02-13T03:21:12.627Z,964.51
2017-02-13T03:22:13.116Z,964.58
2017-02-13T03:23:12.274Z,964.59
2017-02-13T03:24:12.504Z,964.64
2017-02-13T03:25:11.202Z,964.64
2017-02-13T03:26:12.354Z,964.66
2017-02-13T03:27:13.196Z,964.62
2017-02-13T03:28:14.616Z,964.63
2017-02-13T03:29:13.430Z,964.63
2017-02-13T03:30:15.036Z,964.62
2017-02-13T03:31:12.907Z,964.61
2017-02-13T03:32:13.146Z,964.65
2017-02-13T03:33:12.340Z,964.66
2017-02-13T03:34:12.809Z,964.66
2017-02-13T03:35:12.062Z,964.70
2017-02-13T03:36:10.170Z,964.68
2017-02-13T03:37:12.860Z,964.69
2017-02-13T03:38:12.733Z,964.69
2017-02-13T03:39:12.575Z,964.69
2017-02-13T03:40:12.643Z,964.72
2017-02-13T03:41:12.695Z,964.73
2017-02-13T03:42:12.692Z,964.71
2017-02-13T03:43:12.799Z,964.68
2017-02-13T03:44:10.767Z,964.71
2017-02-13T03:45:13.912Z,964.72
2017-02-13T03:46:11.940Z,964.73
2017-02-13T03:47:12.317Z,964.71
2017-02-13T03:48:14.586Z,964.72
2017-02-13T03:49:12.732Z,964.76
2017-02-13T03:50:12.858Z,964.70
2017-02-13T03:51:13.575Z,964.70
2017-02-13T03:52:12.654Z,964.71
2017-02-13T03:53:12.665Z,964.72
2017-02-13T03:54:13.485Z,964.75
2017-02-13T03:55:12.458Z,964.69
2017-02-13T03:56:10.518Z,964.76
2017-02-13T03:57:13.365Z,964.74
2017-02-13T03:58:12.586Z,964.77
2017-02-13T03:59:13.257Z,964.72
2017-02-13T04:00:12.315Z,964.73
2017-02-13T04:01:13.250Z,964.69
2017-02-13T04:02:11.105Z,964.68
2017-02-13T04:03:13.999Z,964.70
2017-02-13T04:04:12.996Z,964.67
2017-02-13T04:05:13.462Z,964.69
2017-02-13T04:06:13.182Z,964.69
2017-02-13T04:07:12.127Z,964.74
2017-02-13T04:08:12.877Z,964.69
2017-02-13T04:09:12.064Z,964.68
2017-02-13T04:10:13.389Z,964.71
2017-02-13T04:11:12.624Z,964.66
2017-02-13T04:12:12.657Z,964.67
2017-02-13T04:13:13.507Z,964.69
2017-02-13T04:14:12.678Z,964.69
2017-02-13T04:15:13.853Z,964.67
2017-02-13T04:16:12.717Z,964.72
2017-02-13T04:17:13.946Z,964.71
2017-02-13T04:18:12.402Z,964.75
2017-02-13T04:19:12.467Z,964.73
2017-02-13T04:20:12.513Z,964.75
2017-02-13T04:21:12.668Z,964.73
2017-02-13T04:22:12.886Z,964.70
2017-02-13T04:23:13.853Z,964.71
2017-02-13T04:24:12.694Z,964.74
2017-02-13T04:25:11.594Z,964.76
2017-02-13T04:26:10.643Z,964.79
2017-02-13T04:27:11.891Z,964.72
2017-02-13T04:28:12.661Z,964.74
2017-02-13T04:29:12.635Z,964.74
2017-02-13T04:30:10.056Z,964.70
2017-02-13T04:31:12.290Z,964.67
2017-02-13T04:32:12.972Z,964.62
2017-02-13T04:33:12.093Z,964.64
2017-02-13T04:34:12.678Z,964.67
2017-02-13T04:35:13.304Z,964.64
2017-02-13T04:36:12.677Z,964.66
2017-02-13T04:37:14.036Z,964.67
2017-02-13T04:38:12.128Z,964.65
2017-02-13T04:39:13.289Z,964.66
2017-02-13T04:40:13.167Z,964.64
2017-02-13T04:41:10.799Z,964.60
2017-02-13T04:42:13.984Z,964.62
2017-02-13T04:43:12.834Z,964.63
2017-02-13T04:44:12.460Z,964.64
2017-02-13T04:45:13.734Z,964.65
2017-02-13T04:46:13.609Z,964.60
2017-02-13T04:47:12.691Z,964.61
2017-02-13T04:48:13.635Z,964.61
2017-02-13T04:49:12.648Z,964.60
2017-02-13T04:50:12.584Z,964.57
2017-02-13T04:51:13.276Z,964.60
2017-02-13T04:52:12.883Z,964.60
2017-02-13T04:53:13.034Z,964.67
2017-02-13T04:54:11.310Z,964.64
2017-02-13T04:55:11.860Z,964.61
2017-02-13T04:56:12.686Z,964.67
2017-02-13T04:57:14.251Z,964.63
2017-02-13T04:58:12.983Z,964.64
2017-02-13T04:59:12.757Z,964.66
2017-02-13T05:00:12.296Z,964.62
2017-02-13T05:01:13.153Z,964.66
2017-02-13T05:02:12.252Z,964.59
2017-02-13T05:03:12.271Z,964.61
2017-02-13T05:04:13.533Z,964.59
2017-02-13T05:05:11.301Z,964.61
2017-02-13T05:06:13.427Z,964.63
2017-02-13T05:07:14.145Z,964.64
2017-02-13T05:08:12.871Z,964.67
2017-02-13T05:09:12.747Z,964.68
2017-02-13T05:10:12.628Z,964.64
2017-02-13T05:11:13.592Z,964.71
2017-02-13T05:12:12.656Z,964.70
2017-02-13T05:13:11.601Z,964.70
2017-02-13T05:14:12.476Z,964.73
2017-02-13T05:15:12.663Z,964.71
2017-02-13T05:16:12.797Z,964.77
2017-02-13T05:17:13.160Z,964.70
2017-02-13T05:18:14.167Z,964.75
2017-02-13T05:19:14.690Z,964.73
2017-02-13T05:20:12.617Z,964.71
2017-02-13T05:21:14.358Z,964.71
2017-02-13T05:22:12.936Z,964.74
2017-02-13T05:23:14.096Z,964.75
2017-02-13T05:24:12.807Z,964.70
2017-02-13T05:25:12.316Z,964.75
2017-02-13T05:26:13.417Z,964.71
2017-02-13T05:27:13.553Z,964.79
2017-02-13T05:28:13.645Z,964.75
2017-02-13T05:29:12.678Z,964.73
2017-02-13T05:30:13.724Z,964.72
2017-02-13T05:31:13.395Z,964.76
2017-02-13T05:32:12.485Z,964.82
2017-02-13T05:33:13.170Z,964.82
2017-02-13T05:34:12.280Z,964.76
2017-02-13T05:35:12.442Z,964.76
2017-02-13T05:36:13.243Z,964.75
2017-02-13T05:37:13.580Z,964.80
2017-02-13T05:38:13.434Z,964.76
2017-02-13T05:39:12.641Z,964.77
2017-02-13T05:40:13.764Z,964.78
2017-02-13T05:41:13.946Z,964.77
2017-02-13T05:42:12.385Z,964.75
2017-02-13T05:43:15.264Z,964.72
2017-02-13T05:44:11.333Z,964.70
2017-02-13T05:45:13.496Z,964.71
2017-02-13T05:46:13.245Z,964.71
2017-02-13T05:47:14.188Z,964.70
2017-02-13T05:48:12.293Z,964.65
2017-02-13T05:49:12.455Z,964.67
2017-02-13T05:50:12.636Z,964.66
2017-02-13T05:51:12.733Z,964.71
2017-02-13T05:52:11.652Z,964.70
2017-02-13T05:53:13.557Z,964.73
2017-02-13T05:54:13.337Z,964.70
2017-02-13T05:55:12.316Z,964.72
2017-02-13T05:56:12.507Z,964.75
2017-02-13T05:57:13.137Z,964.73
2017-02-13T05:58:13.775Z,964.74
2017-02-13T05:59:11.929Z,964.75
2017-02-13T06:00:13.160Z,964.76
2017-02-13T06:01:12.100Z,964.76
2017-02-13T06:02:12.941Z,964.77
2017-02-13T06:03:11.933Z,964.70
2017-02-13T06:04:11.858Z,964.73
2017-02-13T06:05:12.448Z,964.71
2017-02-13T06:06:12.483Z,964.74
2017-02-13T06:07:13.726Z,964.70
2017-02-13T06:08:13.708Z,964.71
2017-02-13T06:09:13.325Z,964.73
2017-02-13T06:10:12.515Z,964.78
2017-02-13T06:11:15.006Z,964.73
2017-02-13T06:12:11.130Z,964.77
2017-02-13T06:13:12.363Z,964.70
2017-02-13T06:14:11.261Z,964.70
2017-02-13T06:15:11.010Z,964.68
2017-02-13T06:16:13.992Z,964.67
2017-02-13T06:17:12.486Z,964.71
2017-02-13T06:18:13.323Z,964.67
2017-02-13T06:19:12.457Z,964.70
2017-02-13T06:20:13.477Z,964.70
2017-02-13T06:21:13.721Z,964.66
2017-02-13T06:22:12.903Z,964.69
2017-02-13T06:23:12.881Z,964.71
2017-02-13T06:24:12.711Z,964.68
2017-02-13T06:25:13.244Z,964.64
2017-02-13T06:26:12.263Z,964.70
2017-02-13T06:27:12.418Z,964.66
2017-02-13T06:28:13.464Z,964.68
2017-02-13T06:29:13.112Z,964.67
2017-02-13T06:30:12.924Z,964.67
2017-02-13T06:31:11.885Z,964.72
2017-02-13T06:32:12.089Z,964.79
2017-02-13T06:33:12.903Z,964.75
2017-02-13T06:34:12.911Z,964.78
2017-02-13T06:35:11.981Z,964.80
2017-02-13T06:36:12.676Z,964.81
2017-02-13T06:37:13.092Z,964.81
2017-02-13T06:38:12.176Z,964.80
2017-02-13T06:39:12.330Z,964.84
2017-02-13T06:40:13.205Z,964.87
2017-02-13T06:41:12.858Z,964.84
2017-02-13T06:42:12.636Z,964.84
2017-02-13T06:43:14.498Z,964.84
2017-02-13T06:44:13.075Z,964.82
2017-02-13T06:45:12.248Z,964.83
2017-02-13T06:46:12.340Z,964.79
2017-02-13T06:47:14.118Z,964.80
2017-02-13T06:48:13.076Z,964.84
2017-02-13T06:49:13.854Z,964.85
2017-02-13T06:50:12.079Z,964.85
2017-02-13T06:51:13.951Z,964.85
2017-02-13T06:52:13.276Z,964.88
2017-02-13T06:53:13.025Z,964.85
2017-02-13T06:54:12.090Z,964.90
2017-02-13T06:55:12.084Z,964.85
2017-02-13T06:56:12.860Z,964.89
2017-02-13T06:57:12.275Z,964.87
2017-02-13T06:58:13.004Z,964.86
2017-02-13T06:59:12.079Z,964.92
2017-02-13T07:00:11.312Z,964.93
2017-02-13T07:01:12.321Z,964.91
2017-02-13T07:02:12.876Z,964.96
2017-02-13T07:03:13.644Z,964.97
2017-02-13T07:04:11.703Z,964.92
2017-02-13T07:05:11.435Z,965.00
2017-02-13T07:06:13.227Z,964.94
2017-02-13T07:07:13.796Z,965.00
2017-02-13T07:08:10.763Z,965.03
2017-02-13T07:09:11.862Z,965.03
2017-02-13T07:10:12.463Z,965.00
2017-02-13T07:11:13.588Z,965.01
2017-02-13T07:12:13.418Z,964.97
2017-02-13T07:13:13.461Z,965.01
2017-02-13T07:14:11.638Z,965.01
2017-02-13T07:15:13.947Z,965.00
2017-02-13T07:16:12.456Z,965.05
2017-02-13T07:17:11.169Z,965.02
2017-02-13T07:18:12.687Z,965.02
2017-02-13T07:19:13.301Z,964.99
2017-02-13T07:20:12.463Z,964.94
2017-02-13T07:21:12.657Z,964.93
2017-02-13T07:22:12.756Z,965.01
2017-02-13T07:23:11.949Z,965.01
2017-02-13T07:24:12.000Z,965.03
2017-02-13T07:25:12.165Z,965.21
2017-02-13T07:26:12.901Z,965.05
2017-02-13T07:27:12.826Z,965.07
2017-02-13T07:28:13.509Z,965.06
2017-02-13T07:29:13.047Z,965.02
2017-02-13T07:30:12.469Z,965.05
2017-02-13T07:31:13.473Z,965.02
2017-02-13T07:32:13.242Z,965.06
2017-02-13T07:33:12.561Z,965.00
2017-02-13T07:34:13.574Z,964.94
2017-02-13T07:35:12.854Z,964.90
2017-02-13T07:36:12.030Z,964.91
2017-02-13T07:37:12.830Z,964.88
2017-02-13T07:38:12.291Z,964.90
2017-02-13T07:39:14.193Z,964.86
2017-02-13T07:40:12.214Z,964.88
2017-02-13T07:41:12.323Z,964.94
2017-02-13T07:42:12.464Z,964.91
2017-02-13T07:43:13.295Z,964.87
2017-02-13T07:44:12.285Z,964.85
2017-02-13T07:45:13.384Z,964.88
2017-02-13T07:46:15.010Z,964.85
2017-02-13T07:47:12.656Z,964.88
2017-02-13T07:48:13.415Z,964.89
2017-02-13T07:49:12.499Z,964.88
2017-02-13T07:50:13.219Z,964.88
2017-02-13T07:51:12.284Z,964.92
2017-02-13T07:52:12.460Z,964.91
2017-02-13T07:53:13.459Z,964.92
2017-02-13T07:54:12.600Z,964.93
2017-02-13T07:55:14.684Z,964.88
2017-02-13T07:56:12.109Z,964.83
2017-02-13T07:57:12.622Z,964.89
2017-02-13T07:58:14.586Z,964.90
2017-02-13T07:59:13.359Z,964.89
2017-02-13T08:00:12.629Z,964.87
2017-02-13T08:01:13.441Z,964.95
2017-02-13T08:02:12.455Z,964.92
2017-02-13T08:03:12.689Z,964.89
2017-02-13T08:04:13.428Z,964.95
2017-02-13T08:05:13.363Z,964.89
2017-02-13T08:06:13.936Z,964.92
2017-02-13T08:07:12.684Z,964.92
2017-02-13T08:08:12.708Z,964.87
2017-02-13T08:09:13.606Z,964.91
2017-02-13T08:10:13.567Z,964.87
2017-02-13T08:11:11.248Z,964.86
2017-02-13T08:12:12.359Z,964.87
2017-02-13T08:13:13.079Z,964.89
2017-02-13T08:14:12.966Z,964.90
2017-02-13T08:15:12.005Z,964.90
2017-02-13T08:16:10.976Z,964.94
2017-02-13T08:17:12.340Z,964.89
2017-02-13T08:18:12.439Z,964.91
2017-02-13T08:19:12.924Z,964.86
2017-02-13T08:20:13.531Z,964.83
2017-02-13T08:21:12.635Z,964.86
2017-02-13T08:22:14.101Z,964.84
2017-02-13T08:23:12.613Z,964.88
2017-02-13T08:24:12.676Z,964.90
2017-02-13T08:25:11.769Z,964.84
2017-02-13T08:26:12.417Z,964.89
2017-02-13T08:27:12.445Z,964.89
2017-02-13T08:28:12.700Z,964.87
2017-02-13T08:29:13.540Z,964.87
2017-02-13T08:30:12.649Z,964.80
2017-02-13T08:31:13.559Z,964.84
2017-02-13T08:32:11.113Z,964.82
2017-02-13T08:33:12.386Z,964.83
2017-02-13T08:34:13.082Z,964.82
2017-02-13T08:35:12.908Z,964.78
2017-02-13T08:36:13.404Z,964.79
2017-02-13T08:37:10.969Z,964.77
2017-02-13T08:38:12.601Z,964.79
2017-02-13T08:39:12.837Z,964.74
2017-02-13T08:40:12.824Z,964.76
2017-02-13T08:41:11.891Z,964.74
2017-02-13T08:42:11.762Z,964.74
2017-02-13T08:43:12.396Z,964.69
2017-02-13T08:44:12.654Z,964.74
2017-02-13T08:45:14.296Z,964.76
2017-02-13T08:46:12.398Z,964.79
2017-02-13T08:47:12.873Z,964.81
2017-02-13T08:48:12.318Z,964.79
2017-02-13T08:49:13.103Z,964.72
2017-02-13T08:50:11.931Z,964.73
2017-02-13T08:51:10.900Z,964.74
2017-02-13T08:52:11.887Z,964.73
2017-02-13T08:53:11.942Z,964.75
2017-02-13T08:54:09.916Z,964.77
2017-02-13T08:55:12.872Z,964.76
2017-02-13T08:56:12.463Z,964.83
2017-02-13T08:57:14.305Z,964.80
2017-02-13T08:58:15.914Z,964.74
2017-02-13T08:59:12.069Z,964.74
2017-02-13T09:00:12.755Z,964.74
2017-02-13T09:01:12.442Z,964.75
2017-02-13T09:02:12.529Z,964.73
2017-02-13T09:03:13.325Z,964.67
2017-02-13T09:04:12.297Z,964.72
2017-02-13T09:05:12.308Z,964.71
2017-02-13T09:06:13.215Z,964.70
2017-02-13T09:07:14.023Z,964.70
2017-02-13T09:08:14.915Z,964.74
2017-02-13T09:09:13.432Z,964.73
2017-02-13T09:10:13.644Z,964.77
2017-02-13T09:11:13.532Z,964.85
2017-02-13T09:12:12.660Z,964.79
2017-02-13T09:13:12.591Z,964.85
2017-02-13T09:14:12.995Z,964.84
2017-02-13T09:15:12.569Z,964.81
2017-02-13T09:16:11.314Z,964.81
2017-02-13T09:17:13.136Z,964.82
2017-02-13T09:18:12.926Z,964.82
2017-02-13T09:19:12.473Z,964.80
2017-02-13T09:20:12.632Z,964.77
2017-02-13T09:21:14.110Z,964.72
2017-02-13T09:22:12.879Z,964.76
2017-02-13T09:23:12.655Z,964.73
2017-02-13T09:24:12.725Z,964.74
2017-02-13T09:25:11.489Z,964.74
2017-02-13T09:26:11.262Z,964.74
2017-02-13T09:27:12.615Z,964.77
2017-02-13T09:28:14.405Z,964.68
2017-02-13T09:29:11.417Z,964.73
2017-02-13T09:30:12.972Z,964.73
2017-02-13T09:31:13.685Z,964.71
2017-02-13T09:32:14.537Z,964.68
2017-02-13T09:33:12.544Z,964.71
2017-02-13T09:34:14.133Z,964.72
2017-02-13T09:35:12.889Z,964.69
2017-02-13T09:36:12.650Z,964.67
2017-02-13T09:37:13.104Z,964.71
2017-02-13T09:38:12.140Z,964.71
2017-02-13T09:39:11.260Z,964.73
2017-02-13T09:40:10.853Z,964.69
2017-02-13T09:41:11.009Z,964.72
2017-02-13T09:42:12.298Z,964.72
2017-02-13T09:43:13.017Z,964.74
2017-02-13T09:44:12.270Z,964.67
2017-02-13T09:45:12.928Z,964.68
2017-02-13T09:46:11.747Z,964.72
2017-02-13T09:47:12.394Z,964.68
2017-02-13T09:48:13.226Z,964.62
2017-02-13T09:49:12.275Z,964.66
2017-02-13T09:50:12.526Z,964.65
2017-02-13T09:51:12.671Z,964.64
2017-02-13T09:52:14.776Z,964.63
2017-02-13T09:53:11.737Z,964.71
2017-02-13T09:54:14.486Z,964.75
2017-02-13T09:55:11.163Z,964.70
2017-02-13T09:56:12.624Z,964.65
2017-02-13T09:57:13.035Z,964.72
2017-02-13T09:58:12.265Z,964.74
2017-02-13T09:59:12.401Z,964.77
2017-02-13T10:00:13.393Z,964.76
2017-02-13T10:01:13.118Z,964.76
2017-02-13T10:02:12.910Z,964.75
2017-02-13T10:03:11.749Z,964.72
2017-02-13T10:04:11.906Z,964.76
2017-02-13T10:05:16.005Z,964.78
2017-02-13T10:06:11.814Z,964.78
2017-02-13T10:07:13.484Z,964.79
2017-02-13T10:08:12.469Z,964.77
2017-02-13T10:09:13.087Z,964.77
2017-02-13T10:10:12.788Z,964.77
2017-02-13T10:11:13.525Z,964.77
2017-02-13T10:12:13.406Z,964.74
2017-02-13T10:13:14.073Z,964.75
2017-02-13T10:14:12.701Z,964.74
2017-02-13T10:15:13.497Z,964.77
2017-02-13T10:16:14.363Z,964.77
2017-02-13T10:17:14.126Z,964.79
2017-02-13T10:18:12.480Z,964.81
2017-02-13T10:19:14.057Z,964.76
2017-02-13T10:20:12.777Z,964.73
2017-02-13T10:21:12.075Z,964.76
2017-02-13T10:22:12.357Z,964.75
2017-02-13T10:23:13.266Z,964.71
2017-02-13T10:24:13.128Z,964.74
2017-02-13T10:25:14.756Z,964.75
2017-02-13T10:26:12.376Z,964.72
2017-02-13T10:27:10.562Z,964.73
2017-02-13T10:28:12.893Z,964.71
2017-02-13T10:29:11.857Z,964.66
2017-02-13T10:30:12.570Z,964.65
2017-02-13T10:31:13.392Z,964.62
2017-02-13T10:32:13.081Z,964.65
2017-02-13T10:33:12.263Z,964.61
2017-02-13T10:34:09.659Z,964.64
2017-02-13T10:35:14.556Z,964.62
2017-02-13T10:36:12.683Z,964.64
2017-02-13T10:37:11.550Z,964.62
2017-02-13T10:38:12.816Z,964.62
2017-02-13T10:39:13.582Z,964.63
2017-02-13T10:40:12.686Z,964.62
2017-02-13T10:41:12.708Z,964.63
2017-02-13T10:42:18.594Z,964.59
2017-02-13T10:43:13.783Z,964.62
2017-02-13T10:44:11.721Z,964.60
2017-02-13T10:45:13.448Z,964.56
2017-02-13T10:46:14.168Z,964.60
2017-02-13T10:47:09.623Z,964.63
2017-02-13T10:48:12.947Z,964.67
2017-02-13T10:49:12.089Z,964.64
2017-02-13T10:50:12.843Z,964.65
2017-02-13T10:51:12.267Z,964.60
2017-02-13T10:52:12.342Z,964.63
2017-02-13T10:53:12.356Z,964.61
2017-02-13T10:54:13.251Z,964.63
2017-02-13T10:55:13.062Z,964.60
2017-02-13T10:56:12.648Z,964.60
2017-02-13T10:57:14.468Z,964.58
2017-02-13T10:58:12.636Z,964.56
2017-02-13T10:59:13.442Z,964.50
2017-02-13T11:00:11.447Z,964.52
2017-02-13T11:01:13.148Z,964.52
2017-02-13T11:02:12.629Z,964.51
2017-02-13T11:03:12.635Z,964.47
2017-02-13T11:04:12.634Z,964.43
2017-02-13T11:05:12.742Z,964.40
2017-02-13T11:06:11.683Z,964.43
2017-02-13T11:07:13.301Z,964.40
2017-02-13T11:08:13.906Z,964.34
2017-02-13T11:09:10.989Z,964.34
2017-02-13T11:10:12.431Z,964.37
2017-02-13T11:11:13.381Z,964.38
2017-02-13T11:12:12.458Z,964.38
2017-02-13T11:13:12.408Z,964.41
2017-02-13T11:14:12.724Z,964.35
2017-02-13T11:15:12.756Z,964.44
2017-02-13T11:16:12.332Z,964.42
2017-02-13T11:17:12.884Z,964.40
2017-02-13T11:18:12.325Z,964.42
2017-02-13T11:19:12.888Z,964.41
2017-02-13T11:20:13.234Z,964.41
2017-02-13T11:21:13.151Z,964.43
2017-02-13T11:22:13.666Z,964.43
2017-02-13T11:23:12.648Z,964.46
2017-02-13T11:24:12.593Z,964.42
2017-02-13T11:25:12.864Z,964.45
2017-02-13T11:26:12.689Z,964.45
2017-02-13T11:27:12.870Z,964.45
2017-02-13T11:28:12.968Z,964.44
2017-02-13T11:29:12.238Z,964.44
2017-02-13T11:30:13.851Z,964.41
2017-02-13T11:31:11.888Z,964.42
2017-02-13T11:32:11.827Z,964.31
2017-02-13T11:33:11.986Z,964.34
2017-02-13T11:34:12.565Z,964.34
2017-02-13T11:35:13.301Z,964.27
2017-02-13T11:36:13.043Z,964.32
2017-02-13T11:37:12.688Z,964.27
2017-02-13T11:38:14.356Z,964.28
2017-02-13T11:39:12.869Z,964.22
2017-02-13T11:40:15.081Z,964.21
2017-02-13T11:41:13.126Z,964.20
2017-02-13T11:42:12.377Z,964.20
2017-02-13T11:43:12.327Z,964.21
2017-02-13T11:44:12.624Z,964.21
2017-02-13T11:45:11.305Z,964.21
2017-02-13T11:46:12.875Z,964.17
2017-02-13T11:47:12.717Z,964.20
2017-02-13T11:48:12.831Z,964.20
2017-02-13T11:49:11.854Z,964.19
2017-02-13T11:50:11.012Z,964.17
2017-02-13T11:51:12.872Z,964.20
2017-02-13T11:52:12.138Z,964.17
2017-02-13T11:53:12.322Z,964.19
2017-02-13T11:54:14.147Z,964.17
2017-02-13T11:55:12.084Z,964.15
2017-02-13T11:56:13.007Z,964.16
2017-02-13T11:57:12.504Z,964.17
2017-02-13T11:58:11.712Z,964.20
2017-02-13T11:59:12.721Z,964.13
2017-02-13T12:00:13.335Z,964.11
2017-02-13T12:01:12.455Z,964.10
2017-02-13T12:02:14.173Z,964.12
2017-02-13T12:03:13.223Z,964.10
2017-02-13T12:04:10.404Z,964.17
2017-02-13T12:05:13.579Z,964.10
2017-02-13T12:06:12.713Z,964.07
2017-02-13T12:07:13.503Z,964.07
2017-02-13T12:08:13.368Z,964.10
2017-02-13T12:09:14.994Z,964.03
2017-02-13T12:10:12.157Z,964.05
2017-02-13T12:11:11.086Z,964.01
2017-02-13T12:12:13.983Z,964.01
2017-02-13T12:13:12.632Z,964.01
2017-02-13T12:14:12.690Z,964.06
2017-02-13T12:15:12.752Z,963.95
2017-02-13T12:16:12.628Z,963.98
2017-02-13T12:17:12.776Z,963.98
2017-02-13T12:18:12.470Z,963.97
2017-02-13T12:19:10.299Z,963.97
2017-02-13T12:20:13.439Z,963.98
2017-02-13T12:21:14.328Z,963.95
2017-02-13T12:22:11.525Z,963.98
2017-02-13T12:23:10.514Z,963.93
2017-02-13T12:24:12.853Z,964.02
2017-02-13T12:25:11.708Z,963.93
2017-02-13T12:26:13.005Z,963.89
2017-02-13T12:27:12.548Z,963.85
2017-02-13T12:28:12.702Z,963.85